Nouvelle, Canada
Current Conditions -  °F | °C
As of 8:00 PM on Friday 28 Nov 2014 (Local Time) from CZBF Reporting Station
Overcast Overcast  
Wind Chill:   Ceiling: 20000
Heat Index: 16°   Visibility: 15mi
Dew Point: 10°   Wind: 5mph
Humidity: 79%   Direction: 290°WNW
Pressure: 30.02"   Gusts: NA
Location:  48.13°N, 66.3°W
Report Text: CZBF 290100Z 29004KT 15SM OVC200 M09/M12 A3002 RMK CS8 SLP171
Loading
Personal Weather Stations






























Interactive Weather Map New forecast layout! Learn more

10-Day Weather Forecast

Advertisements
Track Severe Weather on mobile